Dollard-Des-Ormeaux, Canada
Current Conditions -  °F | °C
As of 1:00 PM on Friday 28 Nov 2014 (Local Time) from CYUL Reporting Station
Broken Clouds Broken Clouds  
Wind Chill: 11°   Ceiling: 5200
Heat Index: 25°   Visibility: 15mi
Dew Point: 14°   Wind: 17mph
Humidity: 64%   Direction: 250°WSW
Pressure: 30.1"   Gusts: 23mph
Location:  45.45°N, 73.85°W
Report Text: CYUL 281800Z 25015G20KT 15SM FEW027 BKN052 BKN100 M04/M10 A3010 RMK SC2SC3AC1 SLP194
Loading
Personal Weather Stations






























Interactive Weather Map New forecast layout! Learn more

10-Day Weather Forecast

Advertisements
Track Severe Weather on mobile